sensor_id;sensor_type;location;lat;lon;timestamp;pressure;altitude;pressure_sealevel;temperature;humidity
10720;BME280;5411;58.386;15.560;2023-04-24T00:01:53;99305.38;;;7.11;100.00
10720;BME280;5411;58.386;15.560;2023-04-24T00:04:21;99316.84;;;7.12;100.00
10720;BME280;5411;58.386;15.560;2023-04-24T00:06:54;99315.41;;;7.09;100.00
10720;BME280;5411;58.386;15.560;2023-04-24T00:09:24;99313.59;;;7.03;100.00
10720;BME280;5411;58.386;15.560;2023-04-24T00:11:52;99305.81;;;7.02;100.00
10720;BME280;5411;58.386;15.560;2023-04-24T00:14:23;99312.34;;;6.99;100.00
10720;BME280;5411;58.386;15.560;2023-04-24T00:16:52;99308.25;;;6.97;100.00
10720;BME280;5411;58.386;15.560;2023-04-24T00:19:21;99309.88;;;6.98;100.00
10720;BME280;5411;58.386;15.560;2023-04-24T00:21:50;99302.94;;;6.90;100.00
10720;BME280;5411;58.386;15.560;2023-04-24T00:24:20;99306.63;;;6.89;100.00
10720;BME280;5411;58.386;15.560;2023-04-24T00:26:51;99307.44;;;6.83;100.00
10720;BME280;5411;58.386;15.560;2023-04-24T00:29:20;99301.91;;;6.85;100.00
10720;BME280;5411;58.386;15.560;2023-04-24T00:31:48;99300.28;;;6.84;100.00
10720;BME280;5411;58.386;15.560;2023-04-24T00:34:19;99295.59;;;6.79;100.00
10720;BME280;5411;58.386;15.560;2023-04-24T00:36:47;99304.59;;;6.78;100.00
10720;BME280;5411;58.386;15.560;2023-04-24T00:39:20;99288.63;;;6.71;100.00
10720;BME280;5411;58.386;15.560;2023-04-24T00:41:54;99292.94;;;6.72;100.00
10720;BME280;5411;58.386;15.560;2023-04-24T00:44:23;99284.53;;;6.69;100.00
10720;BME280;5411;58.386;15.560;2023-04-24T00:46:52;99291.31;;;6.65;100.00
10720;BME280;5411;58.386;15.560;2023-04-24T00:49:24;99285.75;;;6.60;100.00
10720;BME280;5411;58.386;15.560;2023-04-24T00:51:55;99298.03;;;6.61;100.00
10720;BME280;5411;58.386;15.560;2023-04-24T00:54:27;99290.66;;;6.56;100.00
10720;BME280;5411;58.386;15.560;2023-04-24T00:56:55;99287.19;;;6.56;100.00
10720;BME280;5411;58.386;15.560;2023-04-24T00:59:24;99288.63;;;6.52;100.00
10720;BME280;5411;58.386;15.560;2023-04-24T01:01:53;99295.38;;;6.48;100.00
10720;BME280;5411;58.386;15.560;2023-04-24T01:04:21;99292.28;;;6.44;100.00
10720;BME280;5411;58.386;15.560;2023-04-24T01:06:55;99300.25;;;6.44;100.00
10720;BME280;5411;58.386;15.560;2023-04-24T01:09:29;99290.84;;;6.41;100.00
10720;BME280;5411;58.386;15.560;2023-04-24T01:11:58;99291.66;;;6.42;100.00
10720;BME280;5411;58.386;15.560;2023-04-24T01:14:27;99291.47;;;6.37;100.00
10720;BME280;5411;58.386;15.560;2023-04-24T01:16:56;99295.97;;;6.36;100.00
10720;BME280;5411;58.386;15.560;2023-04-24T01:19:27;99318.03;;;6.37;100.00
10720;BME280;5411;58.386;15.560;2023-04-24T01:22:10;99302.28;;;6.35;100.00
10720;BME280;5411;58.386;15.560;2023-04-24T01:24:41;99307.38;;;6.30;100.00
10720;BME280;5411;58.386;15.560;2023-04-24T01:27:11;99306.56;;;6.30;100.00
10720;BME280;5411;58.386;15.560;2023-04-24T01:29:40;99303.91;;;6.30;100.00
10720;BME280;5411;58.386;15.560;2023-04-24T01:32:09;99313.31;;;6.26;100.00
10720;BME280;5411;58.386;15.560;2023-04-24T01:34:37;99309.41;;;6.22;100.00
10720;BME280;5411;58.386;15.560;2023-04-24T01:37:06;99311.88;;;6.23;100.00
10720;BME280;5411;58.386;15.560;2023-04-24T01:39:38;99324.34;;;6.23;100.00
10720;BME280;5411;58.386;15.560;2023-04-24T01:42:07;99326.38;;;6.21;100.00
10720;BME280;5411;58.386;15.560;2023-04-24T01:44:35;99329.22;;;6.19;100.00
10720;BME280;5411;58.386;15.560;2023-04-24T01:47:05;99333.91;;;6.17;100.00
10720;BME280;5411;58.386;15.560;2023-04-24T01:49:34;99328.41;;;6.12;100.00
10720;BME280;5411;58.386;15.560;2023-04-24T01:52:03;99321.66;;;6.10;100.00
10720;BME280;5411;58.386;15.560;2023-04-24T01:54:31;99340.63;;;6.13;100.00
10720;BME280;5411;58.386;15.560;2023-04-24T01:57:01;99334.72;;;6.11;100.00
10720;BME280;5411;58.386;15.560;2023-04-24T01:59:29;99348.81;;;6.12;100.00
10720;BME280;5411;58.386;15.560;2023-04-24T02:01:59;99337.56;;;6.10;100.00
10720;BME280;5411;58.386;15.560;2023-04-24T02:04:28;99347.38;;;6.16;100.00
10720;BME280;5411;58.386;15.560;2023-04-24T02:06:59;99344.13;;;6.20;100.00
10720;BME280;5411;58.386;15.560;2023-04-24T02:09:27;99347.84;;;6.26;100.00
10720;BME280;5411;58.386;15.560;2023-04-24T02:11:56;99345.78;;;6.28;100.00
10720;BME280;5411;58.386;15.560;2023-04-24T02:14:25;99344.38;;;6.32;100.00
10720;BME280;5411;58.386;15.560;2023-04-24T02:16:54;99350.50;;;6.32;100.00
10720;BME280;5411;58.386;15.560;2023-04-24T02:19:22;99339.91;;;6.39;100.00
10720;BME280;5411;58.386;15.560;2023-04-24T02:21:50;99346.03;;;6.46;100.00
10720;BME280;5411;58.386;15.560;2023-04-24T02:24:19;99350.75;;;6.51;100.00
10720;BME280;5411;58.386;15.560;2023-04-24T02:26:47;99338.50;;;6.50;100.00
10720;BME280;5411;58.386;15.560;2023-04-24T02:29:15;99352.59;;;6.57;100.00
10720;BME280;5411;58.386;15.560;2023-04-24T02:31:49;99362.63;;;6.68;100.00
10720;BME280;5411;58.386;15.560;2023-04-24T02:34:20;99367.97;;;6.74;100.00
10720;BME280;5411;58.386;15.560;2023-04-24T02:36:51;99370.81;;;6.79;100.00
10720;BME280;5411;58.386;15.560;2023-04-24T02:39:21;99372.06;;;6.84;100.00
10720;BME280;5411;58.386;15.560;2023-04-24T02:41:50;99359.19;;;6.87;100.00
10720;BME280;5411;58.386;15.560;2023-04-24T02:44:18;99362.66;;;6.94;100.00
10720;BME280;5411;58.386;15.560;2023-04-24T02:46:54;99365.09;;;6.96;100.00
10720;BME280;5411;58.386;15.560;2023-04-24T02:49:23;99365.94;;;7.03;100.00
10720;BME280;5411;58.386;15.560;2023-04-24T02:51:52;99362.84;;;7.06;100.00
10720;BME280;5411;58.386;15.560;2023-04-24T02:54:21;99356.94;;;7.10;100.00
10720;BME280;5411;58.386;15.560;2023-04-24T02:56:49;99353.25;;;7.11;100.00
10720;BME280;5411;58.386;15.560;2023-04-24T02:59:19;99362.66;;;7.14;100.00
10720;BME280;5411;58.386;15.560;2023-04-24T03:01:51;99362.25;;;7.10;100.00
10720;BME280;5411;58.386;15.560;2023-04-24T03:04:23;99362.66;;;7.14;100.00
10720;BME280;5411;58.386;15.560;2023-04-24T03:06:52;99354.09;;;7.19;100.00
10720;BME280;5411;58.386;15.560;2023-04-24T03:09:21;99349.78;;;7.18;100.00
10720;BME280;5411;58.386;15.560;2023-04-24T03:12:00;99350.16;;;7.21;100.00
10720;BME280;5411;58.386;15.560;2023-04-24T03:14:29;99351.59;;;7.24;100.00
10720;BME280;5411;58.386;15.560;2023-04-24T03:16:59;99345.47;;;7.23;100.00
10720;BME280;5411;58.386;15.560;2023-04-24T03:19:27;99358.78;;;7.30;100.00
10720;BME280;5411;58.386;15.560;2023-04-24T03:21:56;99353.44;;;7.30;100.00
10720;BME280;5411;58.386;15.560;2023-04-24T03:24:24;99359.97;;;7.34;100.00
10720;BME280;5411;58.386;15.560;2023-04-24T03:26:54;99360.78;;;7.34;100.00
10720;BME280;5411;58.386;15.560;2023-04-24T03:29:25;99355.28;;;7.29;100.00
10720;BME280;5411;58.386;15.560;2023-04-24T03:31:55;99365.31;;;7.40;100.00
10720;BME280;5411;58.386;15.560;2023-04-24T03:34:25;99355.88;;;7.38;100.00
10720;BME280;5411;58.386;15.560;2023-04-24T03:36:54;99360.81;;;7.41;100.00
10720;BME280;5411;58.386;15.560;2023-04-24T03:39:24;99369.78;;;7.46;100.00
10720;BME280;5411;58.386;15.560;2023-04-24T03:41:52;99372.66;;;7.51;100.00
10720;BME280;5411;58.386;15.560;2023-04-24T03:44:21;99379.00;;;7.57;100.00
10720;BME280;5411;58.386;15.560;2023-04-24T03:46:49;99372.81;;;7.63;100.00
10720;BME280;5411;58.386;15.560;2023-04-24T03:49:33;99375.50;;;7.70;100.00
10720;BME280;5411;58.386;15.560;2023-04-24T03:52:02;99374.44;;;7.77;100.00
10720;BME280;5411;58.386;15.560;2023-04-24T03:54:34;99381.59;;;7.83;100.00
10720;BME280;5411;58.386;15.560;2023-04-24T03:57:02;99360.09;;;7.85;100.00
10720;BME280;5411;58.386;15.560;2023-04-24T03:59:31;99348.38;;;7.93;100.00
10720;BME280;5411;58.386;15.560;2023-04-24T04:02:00;99353.91;;;7.98;100.00
10720;BME280;5411;58.386;15.560;2023-04-24T04:04:35;99363.50;;;8.05;100.00
10720;BME280;5411;58.386;15.560;2023-04-24T04:07:06;99359.59;;;8.08;100.00
10720;BME280;5411;58.386;15.560;2023-04-24T04:09:35;99367.97;;;8.11;100.00
10720;BME280;5411;58.386;15.560;2023-04-24T04:12:03;99360.97;;;8.17;100.00
10720;BME280;5411;58.386;15.560;2023-04-24T04:14:32;99350.50;;;8.22;100.00
10720;BME280;5411;58.386;15.560;2023-04-24T04:17:02;99336.97;;;8.23;100.00
10720;BME280;5411;58.386;15.560;2023-04-24T04:19:30;99349.22;;;8.31;100.00
10720;BME280;5411;58.386;15.560;2023-04-24T04:22:00;99361.94;;;8.36;100.00
10720;BME280;5411;58.386;15.560;2023-04-24T04:24:31;99345.31;;;8.40;100.00
10720;BME280;5411;58.386;15.560;2023-04-24T04:27:05;99348.16;;;8.45;100.00
10720;BME280;5411;58.386;15.560;2023-04-24T04:29:35;99333.59;;;8.41;100.00
10720;BME280;5411;58.386;15.560;2023-04-24T04:32:03;99337.06;;;8.48;100.00
10720;BME280;5411;58.386;15.560;2023-04-24T04:34:32;99331.06;;;8.53;100.00
10720;BME280;5411;58.386;15.560;2023-04-24T04:37:05;99341.91;;;8.58;100.00
10720;BME280;5411;58.386;15.560;2023-04-24T04:39:33;99337.63;;;8.57;100.00
10720;BME280;5411;58.386;15.560;2023-04-24T04:42:02;99342.13;;;8.56;100.00
10720;BME280;5411;58.386;15.560;2023-04-24T04:44:37;99338.44;;;8.57;100.00
10720;BME280;5411;58.386;15.560;2023-04-24T04:47:06;99344.56;;;8.65;100.00
10720;BME280;5411;58.386;15.560;2023-04-24T04:49:35;99347.81;;;8.67;100.00
10720;BME280;5411;58.386;15.560;2023-04-24T04:52:06;99356.81;;;8.72;100.00
10720;BME280;5411;58.386;15.560;2023-04-24T04:54:36;99364.75;;;8.79;100.00
10720;BME280;5411;58.386;15.560;2023-04-24T04:57:06;99366.78;;;8.83;100.00
10720;BME280;5411;58.386;15.560;2023-04-24T04:59:35;99355.69;;;8.86;100.00
10720;BME280;5411;58.386;15.560;2023-04-24T05:02:04;99361.22;;;8.85;100.00
10720;BME280;5411;58.386;15.560;2023-04-24T05:04:32;99361.84;;;8.87;100.00
10720;BME280;5411;58.386;15.560;2023-04-24T05:07:01;99375.97;;;8.87;100.00
10720;BME280;5411;58.386;15.560;2023-04-24T05:09:31;99373.31;;;8.87;100.00
10720;BME280;5411;58.386;15.560;2023-04-24T05:12:00;99379.91;;;8.85;100.00
10720;BME280;5411;58.386;15.560;2023-04-24T05:14:32;99377.63;;;8.88;100.00
10720;BME280;5411;58.386;15.560;2023-04-24T05:17:00;99381.31;;;8.87;100.00
10720;BME280;5411;58.386;15.560;2023-04-24T05:19:29;99390.53;;;8.91;100.00
10720;BME280;5411;58.386;15.560;2023-04-24T05:21:59;99385.78;;;8.93;100.00
10720;BME280;5411;58.386;15.560;2023-04-24T05:24:31;99386.97;;;8.98;100.00
10720;BME280;5411;58.386;15.560;2023-04-24T05:26:59;99376.53;;;8.96;100.00
10720;BME280;5411;58.386;15.560;2023-04-24T05:29:29;99372.41;;;9.00;100.00
10720;BME280;5411;58.386;15.560;2023-04-24T05:31:58;99375.59;;;9.09;100.00
10720;BME280;5411;58.386;15.560;2023-04-24T05:34:27;99378.28;;;9.09;100.00
10720;BME280;5411;58.386;15.560;2023-04-24T05:36:55;99378.25;;;9.15;100.00
10720;BME280;5411;58.386;15.560;2023-04-24T05:39:25;99378.16;;;9.22;100.00
10720;BME280;5411;58.386;15.560;2023-04-24T05:41:55;99378.59;;;9.19;100.00
10720;BME280;5411;58.386;15.560;2023-04-24T05:44:24;99386.25;;;9.15;100.00
10720;BME280;5411;58.386;15.560;2023-04-24T05:46:53;99393.66;;;9.13;100.00
10720;BME280;5411;58.386;15.560;2023-04-24T05:49:22;99387.50;;;9.13;100.00
10720;BME280;5411;58.386;15.560;2023-04-24T05:51:54;99407.69;;;9.27;100.00
10720;BME280;5411;58.386;15.560;2023-04-24T05:54:22;99390.66;;;9.28;100.00
10720;BME280;5411;58.386;15.560;2023-04-24T05:56:50;99408.44;;;9.34;100.00
10720;BME280;5411;58.386;15.560;2023-04-24T05:59:22;99411.50;;;9.38;100.00
10720;BME280;5411;58.386;15.560;2023-04-24T06:01:51;99409.66;;;9.38;100.00
10720;BME280;5411;58.386;15.560;2023-04-24T06:04:19;99418.06;;;9.42;100.00
10720;BME280;5411;58.386;15.560;2023-04-24T06:06:50;99421.69;;;9.47;100.00
10720;BME280;5411;58.386;15.560;2023-04-24T06:09:22;99417.50;;;9.58;100.00
10720;BME280;5411;58.386;15.560;2023-04-24T06:11:51;99410.22;;;9.65;100.00
10720;BME280;5411;58.386;15.560;2023-04-24T06:14:21;99415.53;;;9.72;100.00
10720;BME280;5411;58.386;15.560;2023-04-24T06:16:53;99410.97;;;9.72;100.00
10720;BME280;5411;58.386;15.560;2023-04-24T06:19:21;99414.03;;;9.76;100.00
10720;BME280;5411;58.386;15.560;2023-04-24T06:21:53;99405.13;;;9.82;100.00
10720;BME280;5411;58.386;15.560;2023-04-24T06:24:21;99407.81;;;9.82;100.00
10720;BME280;5411;58.386;15.560;2023-04-24T06:26:50;99406.09;;;9.87;100.00
10720;BME280;5411;58.386;15.560;2023-04-24T06:29:18;99400.38;;;10.02;100.00
10720;BME280;5411;58.386;15.560;2023-04-24T06:31:48;99392.22;;;10.15;100.00
10720;BME280;5411;58.386;15.560;2023-04-24T06:34:17;99394.69;;;10.35;100.00
10720;BME280;5411;58.386;15.560;2023-04-24T06:36:46;99390.25;;;10.59;100.00
10720;BME280;5411;58.386;15.560;2023-04-24T06:39:15;99393.00;;;10.82;100.00
10720;BME280;5411;58.386;15.560;2023-04-24T06:41:43;99394.06;;;10.93;100.00
10720;BME280;5411;58.386;15.560;2023-04-24T06:44:12;99399.19;;;10.94;100.00
10720;BME280;5411;58.386;15.560;2023-04-24T06:46:43;99397.56;;;10.93;100.00
10720;BME280;5411;58.386;15.560;2023-04-24T06:49:13;99402.59;;;11.01;100.00
10720;BME280;5411;58.386;15.560;2023-04-24T06:51:42;99402.38;;;11.03;100.00
10720;BME280;5411;58.386;15.560;2023-04-24T06:54:11;99410.53;;;11.08;100.00
10720;BME280;5411;58.386;15.560;2023-04-24T06:56:39;99417.50;;;11.09;100.00
10720;BME280;5411;58.386;15.560;2023-04-24T06:59:08;99414.75;;;11.16;100.00
10720;BME280;5411;58.386;15.560;2023-04-24T07:01:36;99408.69;;;11.20;100.00
10720;BME280;5411;58.386;15.560;2023-04-24T07:04:06;99416.94;;;11.19;100.00
10720;BME280;5411;58.386;15.560;2023-04-24T07:06:42;99415.66;;;11.10;100.00
10720;BME280;5411;58.386;15.560;2023-04-24T07:09:16;99418.16;;;10.93;100.00
10720;BME280;5411;58.386;15.560;2023-04-24T07:12:03;99412.59;;;10.94;100.00
10720;BME280;5411;58.386;15.560;2023-04-24T07:14:32;99409.81;;;11.01;100.00
10720;BME280;5411;58.386;15.560;2023-04-24T07:17:00;99406.44;;;11.05;100.00
10720;BME280;5411;58.386;15.560;2023-04-24T07:19:30;99400.63;;;11.08;100.00
10720;BME280;5411;58.386;15.560;2023-04-24T07:22:00;99387.38;;;11.02;100.00
10720;BME280;5411;58.386;15.560;2023-04-24T07:24:30;99393.41;;;11.09;100.00
10720;BME280;5411;58.386;15.560;2023-04-24T07:26:59;99396.59;;;11.18;100.00
10720;BME280;5411;58.386;15.560;2023-04-24T07:29:30;99392.53;;;11.27;100.00
10720;BME280;5411;58.386;15.560;2023-04-24T07:32:00;99390.66;;;11.39;100.00
10720;BME280;5411;58.386;15.560;2023-04-24T07:34:30;99391.03;;;11.42;100.00
10720;BME280;5411;58.386;15.560;2023-04-24T07:37:03;99387.75;;;11.40;100.00
10720;BME280;5411;58.386;15.560;2023-04-24T07:39:35;99385.19;;;11.46;100.00
10720;BME280;5411;58.386;15.560;2023-04-24T07:42:05;99394.97;;;11.63;100.00
10720;BME280;5411;58.386;15.560;2023-04-24T07:44:34;99399.75;;;11.73;100.00
10720;BME280;5411;58.386;15.560;2023-04-24T07:47:02;99412.69;;;11.88;100.00
10720;BME280;5411;58.386;15.560;2023-04-24T07:49:31;99402.44;;;11.96;100.00
10720;BME280;5411;58.386;15.560;2023-04-24T07:52:02;99405.94;;;12.08;100.00
10720;BME280;5411;58.386;15.560;2023-04-24T07:54:30;99413.97;;;12.08;99.15
10720;BME280;5411;58.386;15.560;2023-04-24T07:56:59;99408.72;;;12.02;99.14
10720;BME280;5411;58.386;15.560;2023-04-24T07:59:31;99415.94;;;12.01;99.17
10720;BME280;5411;58.386;15.560;2023-04-24T08:01:59;99401.50;;;12.02;99.37
10720;BME280;5411;58.386;15.560;2023-04-24T08:04:28;99411.28;;;12.08;99.92
10720;BME280;5411;58.386;15.560;2023-04-24T08:06:57;99404.97;;;12.14;99.29
10720;BME280;5411;58.386;15.560;2023-04-24T08:09:27;99404.38;;;12.12;97.62
10720;BME280;5411;58.386;15.560;2023-04-24T08:11:55;99401.50;;;12.02;97.04
10720;BME280;5411;58.386;15.560;2023-04-24T08:14:24;99406.38;;;12.05;97.74
10720;BME280;5411;58.386;15.560;2023-04-24T08:16:54;99411.06;;;12.10;98.02
10720;BME280;5411;58.386;15.560;2023-04-24T08:19:23;99409.63;;;12.19;97.88
10720;BME280;5411;58.386;15.560;2023-04-24T08:21:52;99404.13;;;12.26;97.07
10720;BME280;5411;58.386;15.560;2023-04-24T08:24:22;99410.59;;;12.41;96.77
10720;BME280;5411;58.386;15.560;2023-04-24T08:26:52;99411.44;;;12.42;95.32
10720;BME280;5411;58.386;15.560;2023-04-24T08:29:23;99409.78;;;12.41;92.81
10720;BME280;5411;58.386;15.560;2023-04-24T08:31:57;99417.25;;;12.39;94.40
10720;BME280;5411;58.386;15.560;2023-04-24T08:34:25;99415.53;;;12.33;94.40
10720;BME280;5411;58.386;15.560;2023-04-24T08:36:54;99435.22;;;12.50;94.61
10720;BME280;5411;58.386;15.560;2023-04-24T08:39:22;99439.50;;;12.63;94.44
10720;BME280;5411;58.386;15.560;2023-04-24T08:41:52;99436.56;;;12.64;93.31
10720;BME280;5411;58.386;15.560;2023-04-24T08:44:22;99431.84;;;12.71;92.01
10720;BME280;5411;58.386;15.560;2023-04-24T08:46:57;99434.03;;;12.86;93.45
10720;BME280;5411;58.386;15.560;2023-04-24T08:49:27;99429.53;;;13.20;92.44
10720;BME280;5411;58.386;15.560;2023-04-24T08:51:56;99430.47;;;13.42;89.77
10720;BME280;5411;58.386;15.560;2023-04-24T08:54:26;99422.38;;;13.59;88.70
10720;BME280;5411;58.386;15.560;2023-04-24T08:56:59;99414.50;;;13.69;88.21
10720;BME280;5411;58.386;15.560;2023-04-24T08:59:31;99415.31;;;13.70;84.89
10720;BME280;5411;58.386;15.560;2023-04-24T09:02:03;99405.84;;;13.67;85.65
10720;BME280;5411;58.386;15.560;2023-04-24T09:04:34;99420.69;;;13.70;86.00
10720;BME280;5411;58.386;15.560;2023-04-24T09:07:03;99417.41;;;13.84;84.66
10720;BME280;5411;58.386;15.560;2023-04-24T09:09:38;99418.28;;;14.12;86.68
10720;BME280;5411;58.386;15.560;2023-04-24T09:12:11;99413.66;;;14.46;84.68
10720;BME280;5411;58.386;15.560;2023-04-24T09:14:44;99411.69;;;14.63;82.22
10720;BME280;5411;58.386;15.560;2023-04-24T09:17:18;99408.22;;;14.68;82.33
10720;BME280;5411;58.386;15.560;2023-04-24T09:19:46;99399.19;;;14.79;81.81
10720;BME280;5411;58.386;15.560;2023-04-24T09:22:17;99384.31;;;14.71;81.27
10720;BME280;5411;58.386;15.560;2023-04-24T09:24:45;99388.22;;;14.58;79.70
10720;BME280;5411;58.386;15.560;2023-04-24T09:27:23;99380.56;;;14.28;79.87
10720;BME280;5411;58.386;15.560;2023-04-24T09:29:54;99396.22;;;14.10;82.25
10720;BME280;5411;58.386;15.560;2023-04-24T09:32:23;99382.53;;;14.11;82.87
10720;BME280;5411;58.386;15.560;2023-04-24T09:35:06;99378.91;;;14.22;83.09
10720;BME280;5411;58.386;15.560;2023-04-24T09:37:36;99384.16;;;14.34;82.77
10720;BME280;5411;58.386;15.560;2023-04-24T09:40:11;99391.09;;;14.30;82.19
10720;BME280;5411;58.386;15.560;2023-04-24T09:42:43;99388.53;;;14.18;82.78
10720;BME280;5411;58.386;15.560;2023-04-24T09:45:12;99390.03;;;14.09;83.13
10720;BME280;5411;58.386;15.560;2023-04-24T09:47:43;99391.13;;;13.91;82.37
10720;BME280;5411;58.386;15.560;2023-04-24T09:50:13;99382.53;;;13.73;83.29
10720;BME280;5411;58.386;15.560;2023-04-24T09:52:43;99384.44;;;13.55;83.86
10720;BME280;5411;58.386;15.560;2023-04-24T09:55:18;99383.31;;;13.51;85.15
10720;BME280;5411;58.386;15.560;2023-04-24T10:00:53;99370.09;;;13.50;84.96
10720;BME280;5411;58.386;15.560;2023-04-24T10:03:24;99365.88;;;13.54;84.15
10720;BME280;5411;58.386;15.560;2023-04-24T10:05:58;99369.13;;;13.56;83.81
10720;BME280;5411;58.386;15.560;2023-04-24T10:08:27;99369.28;;;13.66;84.85
10720;BME280;5411;58.386;15.560;2023-04-24T10:11:01;99377.22;;;13.78;83.44
10720;BME280;5411;58.386;15.560;2023-04-24T10:13:42;99384.56;;;13.82;82.60
10720;BME280;5411;58.386;15.560;2023-04-24T10:16:13;99379.34;;;13.76;81.57
10720;BME280;5411;58.386;15.560;2023-04-24T10:18:42;99376.25;;;13.84;82.69
10720;BME280;5411;58.386;15.560;2023-04-24T10:21:11;99376.78;;;13.86;82.29
10720;BME280;5411;58.386;15.560;2023-04-24T10:23:39;99371.50;;;13.91;81.47
10720;BME280;5411;58.386;15.560;2023-04-24T10:26:09;99370.75;;;13.96;80.27
10720;BME280;5411;58.386;15.560;2023-04-24T10:28:45;99371.13;;;14.04;80.41
10720;BME280;5411;58.386;15.560;2023-04-24T10:31:15;99373.19;;;14.19;80.14
10720;BME280;5411;58.386;15.560;2023-04-24T10:33:43;99371.56;;;14.40;79.84
10720;BME280;5411;58.386;15.560;2023-04-24T10:36:14;99375.28;;;14.39;78.19
10720;BME280;5411;58.386;15.560;2023-04-24T10:38:46;99378.75;;;14.34;78.08
10720;BME280;5411;58.386;15.560;2023-04-24T10:41:18;99379.00;;;14.33;78.55
10720;BME280;5411;58.386;15.560;2023-04-24T10:44:04;99376.72;;;14.41;76.29
10720;BME280;5411;58.386;15.560;2023-04-24T10:46:35;99369.03;;;14.50;76.86
10720;BME280;5411;58.386;15.560;2023-04-24T10:49:05;99367.44;;;14.54;76.45
10720;BME280;5411;58.386;15.560;2023-04-24T10:51:47;99371.06;;;14.65;76.75
10720;BME280;5411;58.386;15.560;2023-04-24T10:54:33;99366.03;;;14.73;75.84
10720;BME280;5411;58.386;15.560;2023-04-24T10:57:27;99367.56;;;14.96;75.48
10720;BME280;5411;58.386;15.560;2023-04-24T11:00:19;99366.59;;;15.07;74.17
10720;BME280;5411;58.386;15.560;2023-04-24T11:02:52;99359.63;;;15.11;72.79
10720;BME280;5411;58.386;15.560;2023-04-24T11:05:22;99364.28;;;15.21;72.56
10720;BME280;5411;58.386;15.560;2023-04-24T11:08:12;99361.94;;;15.29;70.94
10720;BME280;5411;58.386;15.560;2023-04-24T11:10:43;99357.88;;;15.32;71.67
10720;BME280;5411;58.386;15.560;2023-04-24T11:13:14;99359.78;;;15.31;72.18
10720;BME280;5411;58.386;15.560;2023-04-24T11:15:44;99358.50;;;15.39;71.46
10720;BME280;5411;58.386;15.560;2023-04-24T11:18:15;99361.88;;;15.56;71.01
10720;BME280;5411;58.386;15.560;2023-04-24T11:20:46;99356.50;;;15.61;68.93
10720;BME280;5411;58.386;15.560;2023-04-24T11:23:14;99366.53;;;15.66;69.09
10720;BME280;5411;58.386;15.560;2023-04-24T11:25:44;99373.84;;;15.71;68.41
10720;BME280;5411;58.386;15.560;2023-04-24T11:28:14;99368.75;;;15.79;68.48
10720;BME280;5411;58.386;15.560;2023-04-24T11:30:44;99368.50;;;15.86;68.35
10720;BME280;5411;58.386;15.560;2023-04-24T11:33:19;99364.41;;;15.73;68.14
10720;BME280;5411;58.386;15.560;2023-04-24T11:35:54;99354.66;;;15.67;68.46
10720;BME280;5411;58.386;15.560;2023-04-24T11:38:23;99355.22;;;15.74;68.07
10720;BME280;5411;58.386;15.560;2023-04-24T11:40:55;99357.38;;;15.67;67.40
10720;BME280;5411;58.386;15.560;2023-04-24T11:43:24;99356.59;;;15.77;67.20
10720;BME280;5411;58.386;15.560;2023-04-24T11:45:53;99358.00;;;15.84;67.26
10720;BME280;5411;58.386;15.560;2023-04-24T11:48:23;99357.25;;;15.94;66.58
10720;BME280;5411;58.386;15.560;2023-04-24T11:50:51;99356.38;;;15.88;65.21
10720;BME280;5411;58.386;15.560;2023-04-24T11:53:22;99356.91;;;15.85;65.88
10720;BME280;5411;58.386;15.560;2023-04-24T11:55:54;99348.84;;;15.90;65.13
10720;BME280;5411;58.386;15.560;2023-04-24T11:58:23;99335.84;;;15.77;65.45
10720;BME280;5411;58.386;15.560;2023-04-24T12:00:56;99339.06;;;15.74;65.27
10720;BME280;5411;58.386;15.560;2023-04-24T12:03:28;99343.72;;;15.84;65.55
10720;BME280;5411;58.386;15.560;2023-04-24T12:06:07;99330.22;;;15.89;66.22
10720;BME280;5411;58.386;15.560;2023-04-24T12:08:46;99341.94;;;16.10;64.35
10720;BME280;5411;58.386;15.560;2023-04-24T12:11:16;99334.13;;;16.18;64.37
10720;BME280;5411;58.386;15.560;2023-04-24T12:13:47;99333.09;;;16.24;63.54
10720;BME280;5411;58.386;15.560;2023-04-24T12:16:15;99341.97;;;16.20;64.66
10720;BME280;5411;58.386;15.560;2023-04-24T12:18:45;99328.69;;;16.08;62.68
10720;BME280;5411;58.386;15.560;2023-04-24T12:21:18;99331.63;;;15.96;62.82
10720;BME280;5411;58.386;15.560;2023-04-24T12:23:49;99335.09;;;15.92;62.95
10720;BME280;5411;58.386;15.560;2023-04-24T12:26:19;99325.34;;;15.86;63.72
10720;BME280;5411;58.386;15.560;2023-04-24T12:31:40;99325.88;;;15.78;63.44
10720;BME280;5411;58.386;15.560;2023-04-24T12:34:18;99326.31;;;15.64;63.14
10720;BME280;5411;58.386;15.560;2023-04-24T12:36:50;99323.25;;;15.51;63.33
10720;BME280;5411;58.386;15.560;2023-04-24T12:39:22;99325.41;;;15.49;64.33
10720;BME280;5411;58.386;15.560;2023-04-24T12:41:56;99317.53;;;15.42;63.87
10720;BME280;5411;58.386;15.560;2023-04-24T12:44:30;99306.41;;;15.33;64.72
10720;BME280;5411;58.386;15.560;2023-04-24T12:47:03;99303.72;;;15.33;64.82
10720;BME280;5411;58.386;15.560;2023-04-24T12:49:42;99296.69;;;15.27;65.61
10720;BME280;5411;58.386;15.560;2023-04-24T12:52:10;99294.50;;;15.24;66.03
10720;BME280;5411;58.386;15.560;2023-04-24T12:54:38;99301.22;;;15.22;66.53
10720;BME280;5411;58.386;15.560;2023-04-24T12:57:07;99293.16;;;15.22;67.02
10720;BME280;5411;58.386;15.560;2023-04-24T12:59:35;99289.88;;;15.15;66.80
10720;BME280;5411;58.386;15.560;2023-04-24T13:02:03;99285.50;;;15.09;66.54
10720;BME280;5411;58.386;15.560;2023-04-24T13:04:32;99286.00;;;15.01;67.27
10720;BME280;5411;58.386;15.560;2023-04-24T13:07:05;99290.81;;;14.98;67.97
10720;BME280;5411;58.386;15.560;2023-04-24T13:09:34;99277.88;;;14.95;67.22
10720;BME280;5411;58.386;15.560;2023-04-24T13:12:07;99268.16;;;14.94;67.69
10720;BME280;5411;58.386;15.560;2023-04-24T13:14:36;99280.59;;;15.01;67.17
10720;BME280;5411;58.386;15.560;2023-04-24T13:17:04;99278.94;;;14.94;67.89
10720;BME280;5411;58.386;15.560;2023-04-24T13:19:35;99277.84;;;14.90;68.84
10720;BME280;5411;58.386;15.560;2023-04-24T13:22:06;99280.53;;;14.90;68.77
10720;BME280;5411;58.386;15.560;2023-04-24T13:24:35;99280.53;;;14.90;67.57